This is the latest recevied weather packets stored in our database for station/object BARLOW-WX. If no packets are shown the sender has not sent any weather packets the latest 10 day(s).
| Time | Temp. | Humidity | Pressure | Rain* | Wind** | Luminosity | Snow |
|---|---|---|---|---|---|---|---|
| 1787863580 | 24.44° C | 54% | 987.6 hPa | 0 mm | - | - | - |
| 1787862682 | 25° C | 54% | 987.6 hPa | 0 mm | - | - | - |
| 1787861779 | 25.56° C | 54% | 987.6 hPa | 0 mm | - | - | - |
| 1787860882 | 25.56° C | 51% | 988.2 hPa | 0 mm | - | - | - |
| 1787859979 | 25° C | 56% | 987.3 hPa | 0 mm | - | - | - |
| 1787859081 | 25.56° C | 56% | 987.4 hPa | 0 mm | - | - | - |
| 1787858178 | 25° C | 49% | 987.7 hPa | 0 mm | - | - | - |
| 1787857288 | 25° C | 49% | 987.7 hPa | 0 mm | - | - | - |
| 1787856379 | 25.56° C | 55% | 986.9 hPa | 0 mm | - | - | - |
| 1787855481 | 25° C | 55% | 986.9 hPa | 0 mm | - | - | - |
| 1787854578 | 25° C | 55% | 986.9 hPa | 0 mm | - | - | - |
| 1787853680 | 25° C | 55% | 986.9 hPa | 0 mm | - | - | - |
| 1787852778 | 24.44° C | 66% | 987.1 hPa | 0 mm | - | - | - |
| 1787851878 | 23.89° C | 66% | 987.1 hPa | 0 mm | - | - | - |
| 1787850980 | 23.89° C | 66% | 987.1 hPa | 0 mm | - | - | - |
| 1787850085 | 23.89° C | 66% | 987.1 hPa | 0 mm | - | - | - |
| 1787849180 | 23.33° C | 67% | 987.2 hPa | 0 mm | - | - | - |
| 1787848281 | 23.89° C | 67% | 987.2 hPa | 0 mm | - | - | - |
| 1787847379 | 23.33° C | 67% | 987.2 hPa | 0 mm | - | - | - |
| 1787846486 | 23.33° C | 67% | 987.2 hPa | 0 mm | - | - | - |
| 1787845579 | 22.78° C | 68% | 987.4 hPa | 0 mm | - | - | - |
| 1787844678 | 22.78° C | 68% | 987.4 hPa | 0 mm | - | - | - |
| 1787843777 | 22.22° C | 68% | 987.4 hPa | 0 mm | - | - | - |
| 1787842880 | 22.22° C | 68% | 987.4 hPa | 0 mm | - | - | - |
| 1787841980 | 21.67° C | 81% | 986.3 hPa | 0 mm | - | - | - |
* Rain latest hour (hover to see other rain measurements)
** Current wind speed in m/s (hover to see current wind gust speed)